Time;durP1;ratioP1;P1;durP2;ratioP2;P2;SDS_P1;SDS_P2;PMS_P1;PMS_P2;Temp;Humidity;BMP_temperature;BMP_pressure;BME280_temperature;BME280_humidity;BME280_pressure;Samples;Min_cycle;Max_cycle;Signal;HPM_P1;HPM_P2
2023/01/07 00:01:20;;;;;;;1.70;1.53;;;9.30;99.90;;;;;;5035650;28;20207;-49
2023/01/07 00:03:47;;;;;;;3.20;1.53;;;9.40;99.90;;;;;;5053611;28;20160;-52
2023/01/07 00:06:15;;;;;;;4.73;1.43;;;9.40;99.90;;;;;;5053239;28;20227;-50
2023/01/07 00:08:43;;;;;;;1.40;1.30;;;9.50;99.90;;;;;;5053126;28;20607;-50
2023/01/07 00:11:11;;;;;;;1.30;1.20;;;9.50;99.90;;;;;;5054690;28;20198;-50
2023/01/07 00:13:37;;;;;;;1.40;1.30;;;9.50;99.90;;;;;;5057252;28;20180;-49
2023/01/07 00:16:09;;;;;;;1.77;1.30;;;9.60;99.90;;;;;;5057365;28;20189;-49
2023/01/07 00:18:36;;;;;;;1.50;1.10;;;9.60;99.90;;;;;;5056988;28;20217;-50
2023/01/07 00:21:04;;;;;;;1.10;1.10;;;9.60;99.90;;;;;;5056961;28;20179;-50
2023/01/07 00:23:31;;;;;;;1.53;1.30;;;9.60;99.90;;;;;;5056863;28;20188;-51
2023/01/07 00:26:17;;;;;;;1.50;1.03;;;9.60;99.90;;;;;;5057101;28;20211;-50
2023/01/07 00:28:45;;;;;;;1.60;1.10;;;9.60;99.90;;;;;;5057131;28;20587;-49
2023/01/07 00:31:19;;;;;;;1.17;1.03;;;9.60;99.90;;;;;;5039065;28;20207;-50
2023/01/07 00:33:50;;;;;;;1.43;1.20;;;9.70;99.90;;;;;;5056585;28;20551;-50
2023/01/07 00:36:18;;;;;;;1.60;1.13;;;9.70;99.90;;;;;;5056651;28;20641;-49
2023/01/07 00:38:43;;;;;;;4.40;1.90;;;9.70;99.90;;;;;;5056833;28;20211;-51
2023/01/07 00:41:09;;;;;;;1.40;1.20;;;9.60;99.90;;;;;;5056543;28;20193;-50
2023/01/07 00:43:35;;;;;;;3.20;1.17;;;9.60;99.90;;;;;;5056604;28;20179;-50
2023/01/07 00:46:00;;;;;;;1.37;1.27;;;9.60;99.90;;;;;;5056445;28;20547;-50
2023/01/07 00:48:26;;;;;;;1.67;1.40;;;9.60;99.90;;;;;;5056875;28;20210;-50
2023/01/07 00:50:53;;;;;;;1.27;1.17;;;9.60;99.90;;;;;;5056275;28;20207;-49
2023/01/07 00:53:19;;;;;;;2.30;1.27;;;9.60;99.90;;;;;;5038448;28;20279;-52
2023/01/07 00:55:44;;;;;;;2.37;1.13;;;9.70;99.90;;;;;;5056204;28;20279;-51
2023/01/07 00:58:28;;;;;;;1.50;1.23;;;9.70;99.90;;;;;;5038803;28;20192;-52
2023/01/07 01:00:55;;;;;;;3.07;1.30;;;9.70;99.90;;;;;;5056271;28;20176;-51
2023/01/07 01:03:21;;;;;;;2.50;1.10;;;9.70;99.90;;;;;;5056236;28;20179;-50
2023/01/07 01:05:47;;;;;;;2.20;1.10;;;9.80;99.90;;;;;;5056078;28;20180;-52
2023/01/07 01:08:13;;;;;;;2.97;1.20;;;9.70;99.90;;;;;;5056001;28;20208;-49
2023/01/07 01:10:38;;;;;;;4.10;1.33;;;9.70;99.90;;;;;;5056612;28;20187;-50
2023/01/07 01:13:04;;;;;;;1.00;1.00;;;9.80;99.90;;;;;;5055990;28;20204;-50
2023/01/07 01:15:29;;;;;;;1.20;1.10;;;9.80;99.90;;;;;;5055918;28;20180;-49
2023/01/07 01:17:55;;;;;;;1.40;1.13;;;9.80;99.90;;;;;;5056012;28;20176;-50
2023/01/07 01:20:21;;;;;;;1.20;1.10;;;9.80;99.90;;;;;;5056078;28;20184;-49
2023/01/07 01:22:46;;;;;;;1.03;0.90;;;9.80;99.90;;;;;;5054402;28;20205;-50
2023/01/07 01:25:12;;;;;;;1.47;1.27;;;9.80;99.90;;;;;;5056073;28;20180;-49
2023/01/07 01:27:38;;;;;;;1.00;0.90;;;9.90;99.90;;;;;;5055772;28;20553;-50
2023/01/07 01:30:05;;;;;;;1.90;1.37;;;9.90;99.90;;;;;;5055678;28;20200;-50
2023/01/07 01:32:31;;;;;;;1.10;1.00;;;9.90;99.90;;;;;;5055497;28;20203;-50
2023/01/07 01:34:56;;;;;;;1.90;1.30;;;9.90;99.90;;;;;;5055795;28;20188;-50
2023/01/07 01:37:22;;;;;;;2.77;1.17;;;10.00;99.90;;;;;;5055419;28;20263;-48
2023/01/07 01:39:48;;;;;;;1.33;1.10;;;10.00;99.90;;;;;;5055769;28;20207;-49
2023/01/07 01:42:21;;;;;;;3.73;1.10;;;10.00;99.90;;;;;;5055356;28;20208;-50
2023/01/07 01:44:55;;;;;;;4.77;1.07;;;10.00;99.90;;;;;;5055426;28;20563;-50
2023/01/07 01:47:37;;;;;;;1.73;1.27;;;10.00;99.90;;;;;;5055298;28;20688;-49
2023/01/07 01:50:12;;;;;;;1.17;1.07;;;10.00;99.90;;;;;;5055871;28;20591;-50
2023/01/07 01:52:47;;;;;;;1.30;1.20;;;10.00;99.90;;;;;;5055284;28;20196;-50
2023/01/07 01:55:16;;;;;;;1.57;0.93;;;10.00;99.90;;;;;;5055268;28;20236;-49
2023/01/07 01:57:48;;;;;;;1.57;1.00;;;10.00;99.90;;;;;;5055391;28;20275;-51
2023/01/07 02:00:15;;;;;;;1.67;0.90;;;10.00;99.90;;;;;;5055255;28;20161;-51
2023/01/07 02:02:48;;;;;;;1.13;1.03;;;10.00;99.90;;;;;;5054966;28;20294;-50
2023/01/07 02:05:14;;;;;;;1.20;1.03;;;10.10;99.90;;;;;;5055303;28;20176;-48
2023/01/07 02:07:40;;;;;;;1.27;0.93;;;10.00;99.90;;;;;;5054904;28;20266;-51
2023/01/07 02:10:11;;;;;;;1.70;1.00;;;10.10;99.90;;;;;;5055351;28;20291;-49
2023/01/07 02:12:56;;;;;;;1.00;0.90;;;10.10;99.90;;;;;;5054799;28;20210;-49
2023/01/07 02:15:40;;;;;;;1.13;1.03;;;10.00;99.90;;;;;;5055170;28;20538;-49
2023/01/07 02:18:24;;;;;;;0.80;0.80;;;10.10;99.90;;;;;;5055034;28;20637;-50
2023/01/07 02:21:25;;;;;;;1.13;1.00;;;10.00;99.90;;;;;;5054585;28;20169;-50
2023/01/07 02:24:43;;;;;;;0.80;0.80;;;10.00;99.90;;;;;;5050535;28;20326;-49
2023/01/07 02:27:23;;;;;;;2.20;1.00;;;9.90;99.90;;;;;;5054561;28;20172;-48
2023/01/07 02:30:07;;;;;;;0.90;0.90;;;9.90;99.90;;;;;;5054684;28;20192;-51
2023/01/07 02:33:04;;;;;;;3.93;0.90;;;9.70;99.90;;;;;;5054438;28;20238;-49
2023/01/07 02:35:42;;;;;;;0.97;0.80;;;9.70;99.90;;;;;;5054701;28;20670;-50
2023/01/07 02:38:23;;;;;;;0.90;0.90;;;9.70;99.90;;;;;;5054626;28;20248;-50
2023/01/07 02:41:04;;;;;;;1.40;0.90;;;9.60;99.90;;;;;;5054555;28;20175;-50
2023/01/07 02:44:02;;;;;;;1.17;0.90;;;9.50;99.90;;;;;;5054232;28;20191;-49
2023/01/07 02:46:28;;;;;;;1.13;1.00;;;9.50;99.90;;;;;;5054568;28;20171;-51
2023/01/07 02:48:58;;;;;;;2.47;0.90;;;9.50;99.90;;;;;;5054046;28;20211;-49
2023/01/07 02:51:44;;;;;;;0.60;0.60;;;9.50;99.90;;;;;;5054197;28;20198;-50
2023/01/07 02:54:19;;;;;;;1.20;0.90;;;9.40;99.90;;;;;;5054173;28;20632;-49
2023/01/07 02:57:06;;;;;;;1.27;0.70;;;9.40;99.90;;;;;;5053957;28;20199;-49
2023/01/07 02:59:57;;;;;;;0.80;0.80;;;9.40;99.90;;;;;;5054485;28;20174;-50
2023/01/07 03:02:43;;;;;;;3.53;0.80;;;9.40;99.90;;;;;;5023254;28;20208;-50
2023/01/07 03:05:09;;;;;;;0.77;0.77;;;9.50;99.90;;;;;;5035266;28;20187;-50
2023/01/07 03:08:26;;;;;;;0.80;0.80;;;9.40;99.90;;;;;;5053864;28;20184;-50
2023/01/07 03:11:01;;;;;;;1.10;0.90;;;9.40;99.90;;;;;;5037028;28;20200;-50
2023/01/07 03:13:37;;;;;;;0.60;0.60;;;9.40;99.90;;;;;;5054348;28;20160;-50
2023/01/07 03:16:11;;;;;;;1.63;0.70;;;9.50;99.90;;;;;;5053704;28;20524;-50
2023/01/07 03:18:54;;;;;;;1.53;0.50;;;9.40;99.90;;;;;;5053618;28;20167;-50
2023/01/07 03:21:22;;;;;;;1.63;0.80;;;9.40;99.90;;;;;;5053750;28;20223;-50
2023/01/07 03:23:53;;;;;;;3.53;0.80;;;9.40;99.90;;;;;;5053481;28;20168;-49
2023/01/07 03:26:30;;;;;;;2.63;0.87;;;9.40;99.90;;;;;;5053802;28;20199;-50
2023/01/07 03:28:58;;;;;;;1.67;0.87;;;9.40;99.90;;;;;;5054032;28;20639;-51
2023/01/07 03:31:25;;;;;;;0.87;0.80;;;9.40;99.90;;;;;;5053768;28;20203;-50
2023/01/07 03:33:58;;;;;;;0.90;0.80;;;9.30;99.90;;;;;;5053925;28;20667;-50
2023/01/07 03:36:34;;;;;;;0.87;0.87;;;9.30;99.90;;;;;;5054071;28;20621;-49
2023/01/07 03:39:01;;;;;;;2.07;1.10;;;9.30;99.90;;;;;;5053682;28;20600;-50
2023/01/07 03:44:11;;;;;;;0.93;0.80;;;9.30;99.90;;;;;;5053456;28;20175;-48
2023/01/07 03:46:37;;;;;;;0.80;0.80;;;9.30;99.90;;;;;;5053562;28;20188;-49
2023/01/07 03:49:03;;;;;;;1.17;1.07;;;9.20;99.90;;;;;;5053538;28;20203;-50
2023/01/07 03:51:29;;;;;;;4.20;1.00;;;9.20;99.90;;;;;;5035245;28;20359;-49
2023/01/07 03:53:54;;;;;;;1.70;1.13;;;9.30;99.90;;;;;;5053128;28;20683;-49
2023/01/07 03:56:20;;;;;;;2.37;1.17;;;9.20;99.90;;;;;;5052950;28;20242;-49
2023/01/07 03:58:45;;;;;;;1.73;1.10;;;9.20;99.90;;;;;;5053026;28;20644;-51
2023/01/07 04:01:11;;;;;;;3.10;1.00;;;9.30;99.90;;;;;;5053014;28;20280;-50
2023/01/07 04:03:36;;;;;;;1.03;0.93;;;9.30;99.90;;;;;;5053500;28;20229;-50
2023/01/07 04:06:02;;;;;;;2.00;1.10;;;9.40;99.90;;;;;;5053008;28;20176;-50
2023/01/07 04:08:28;;;;;;;3.37;1.03;;;9.40;99.90;;;;;;5053203;28;20653;-50
2023/01/07 04:10:53;;;;;;;1.27;1.10;;;9.40;99.90;;;;;;5052871;28;20215;-50
2023/01/07 04:13:19;;;;;;;1.30;1.20;;;9.50;99.90;;;;;;5053530;28;20591;-50
2023/01/07 04:15:44;;;;;;;2.60;1.20;;;9.50;99.90;;;;;;5052910;28;20542;-51
2023/01/07 04:18:10;;;;;;;3.93;1.00;;;9.60;99.90;;;;;;5052908;28;20540;-50
2023/01/07 04:20:35;;;;;;;1.80;1.17;;;9.60;99.90;;;;;;5053125;28;20583;-50
2023/01/07 04:23:01;;;;;;;1.80;1.37;;;9.60;99.90;;;;;;5052898;28;20233;-49
2023/01/07 04:25:27;;;;;;;0.93;0.77;;;9.60;99.90;;;;;;5052822;28;20181;-50
2023/01/07 04:27:52;;;;;;;1.80;1.00;;;9.70;99.90;;;;;;5053153;28;20177;-50
2023/01/07 04:30:18;;;;;;;3.00;1.00;;;9.70;99.90;;;;;;5052943;28;20221;-50
2023/01/07 04:32:43;;;;;;;1.63;1.00;;;9.80;99.90;;;;;;5053235;28;20291;-50
2023/01/07 04:35:09;;;;;;;1.20;1.10;;;9.80;99.90;;;;;;5052790;28;20538;-49
2023/01/07 04:37:34;;;;;;;1.90;1.10;;;9.80;99.90;;;;;;5034936;28;20179;-50
2023/01/07 04:40:00;;;;;;;0.93;0.93;;;9.80;99.90;;;;;;5053179;28;20234;-50
2023/01/07 04:42:25;;;;;;;1.63;1.00;;;9.80;99.90;;;;;;5052804;28;20208;-50
2023/01/07 04:44:52;;;;;;;1.70;0.90;;;9.80;99.90;;;;;;5052619;28;20550;-49
2023/01/07 04:47:17;;;;;;;1.97;0.97;;;9.80;99.90;;;;;;5035194;28;20187;-49
2023/01/07 04:49:43;;;;;;;4.00;1.00;;;9.90;99.90;;;;;;5052768;28;20281;-48
2023/01/07 04:52:08;;;;;;;3.07;1.13;;;9.80;99.90;;;;;;5052437;28;20201;-49
2023/01/07 04:54:34;;;;;;;2.93;1.20;;;9.80;99.90;;;;;;5052531;28;20174;-50
2023/01/07 04:56:59;;;;;;;2.17;0.97;;;9.80;99.90;;;;;;5053885;28;20209;-50
2023/01/07 04:59:25;;;;;;;1.17;0.77;;;9.80;99.90;;;;;;5056209;28;20211;-52
2023/01/07 05:01:51;;;;;;;1.23;0.83;;;9.80;99.90;;;;;;5056148;28;20661;-50
2023/01/07 05:04:16;;;;;;;1.27;0.90;;;9.80;99.90;;;;;;5056181;28;20179;-49
2023/01/07 05:06:42;;;;;;;0.93;0.90;;;9.80;99.90;;;;;;5056092;28;20528;-49
2023/01/07 05:09:07;;;;;;;2.60;1.00;;;9.80;99.90;;;;;;5056038;28;20203;-49
2023/01/07 05:11:33;;;;;;;1.57;1.00;;;9.70;99.90;;;;;;5055949;28;20579;-50
2023/01/07 05:13:59;;;;;;;2.03;1.00;;;9.70;99.90;;;;;;5055987;28;20180;-51
2023/01/07 05:16:25;;;;;;;1.73;0.90;;;9.70;99.90;;;;;;5055974;28;20176;-50
2023/01/07 05:18:51;;;;;;;2.80;1.07;;;9.60;99.90;;;;;;5056163;28;20184;-49
2023/01/07 05:21:16;;;;;;;2.30;0.90;;;9.60;99.90;;;;;;5037784;28;20200;-52
2023/01/07 05:23:42;;;;;;;0.90;0.90;;;9.50;99.90;;;;;;5056115;28;20174;-50
2023/01/07 05:26:08;;;;;;;1.10;0.83;;;9.50;99.90;;;;;;5056025;28;20259;-51
2023/01/07 05:28:34;;;;;;;4.60;1.07;;;9.40;99.90;;;;;;5055814;28;20737;-50
2023/01/07 05:31:00;;;;;;;1.37;0.90;;;9.40;99.90;;;;;;5055806;28;20628;-50
2023/01/07 05:33:25;;;;;;;3.63;0.83;;;9.40;99.90;;;;;;5055619;28;20232;-50
2023/01/07 05:35:51;;;;;;;3.23;1.20;;;9.30;99.90;;;;;;5055589;28;20257;-51
2023/01/07 05:38:17;;;;;;;3.27;0.90;;;9.20;99.90;;;;;;5056147;28;20182;-52
2023/01/07 05:40:42;;;;;;;1.40;1.00;;;9.20;99.90;;;;;;5055667;28;20587;-50
2023/01/07 05:43:08;;;;;;;2.70;1.00;;;9.10;99.90;;;;;;5055360;28;20231;-50
2023/01/07 05:45:33;;;;;;;1.23;1.00;;;9.10;99.90;;;;;;5055427;28;20255;-49
2023/01/07 05:47:59;;;;;;;0.80;0.80;;;9.00;99.90;;;;;;5055338;28;20188;-49
2023/01/07 05:50:24;;;;;;;1.00;0.90;;;8.90;99.90;;;;;;5037500;28;20544;-51
2023/01/07 05:52:50;;;;;;;1.40;0.90;;;8.90;99.90;;;;;;5055132;28;20322;-52
2023/01/07 05:55:16;;;;;;;2.80;1.37;;;8.80;99.90;;;;;;5055112;28;20191;-52
2023/01/07 05:57:42;;;;;;;1.30;1.10;;;8.70;99.90;;;;;;5055460;28;20187;-50
2023/01/07 06:00:09;;;;;;;1.97;1.20;;;8.70;99.90;;;;;;5055949;28;20180;-49
2023/01/07 06:02:36;;;;;;;2.53;0.83;;;8.60;99.90;;;;;;5055260;28;20250;-50
2023/01/07 06:05:02;;;;;;;1.20;1.10;;;8.70;99.90;;;;;;5055448;28;20615;-49
2023/01/07 06:07:28;;;;;;;2.10;0.83;;;8.60;99.90;;;;;;5054890;28;20253;-51
2023/01/07 06:09:53;;;;;;;1.13;1.00;;;8.60;99.90;;;;;;5054035;28;20247;-51
2023/01/07 06:12:19;;;;;;;1.17;0.90;;;8.60;99.90;;;;;;5054803;28;20234;-49
2023/01/07 06:14:44;;;;;;;1.77;1.60;;;8.60;99.90;;;;;;5055036;28;20168;-49
2023/01/07 06:17:10;;;;;;;1.53;1.00;;;8.60;99.90;;;;;;5055074;28;20199;-50
2023/01/07 06:19:35;;;;;;;6.83;1.30;;;8.60;99.90;;;;;;5036834;28;20241;-50
2023/01/07 06:22:01;;;;;;;3.20;1.10;;;8.60;99.90;;;;;;5054784;28;20197;-50
2023/01/07 06:24:27;;;;;;;2.07;1.20;;;8.50;99.90;;;;;;5054877;28;20180;-49
2023/01/07 06:26:52;;;;;;;2.77;1.10;;;8.60;99.90;;;;;;5054831;28;20663;-49
2023/01/07 06:29:18;;;;;;;3.30;1.50;;;8.50;99.90;;;;;;5054985;28;20284;-49
2023/01/07 06:31:43;;;;;;;2.63;1.30;;;8.50;99.90;;;;;;5054692;28;20220;-49
2023/01/07 06:34:09;;;;;;;1.63;1.13;;;8.50;99.90;;;;;;5054411;28;20182;-49
2023/01/07 06:36:34;;;;;;;1.73;1.20;;;8.50;99.90;;;;;;5054357;28;20261;-50
2023/01/07 06:39:00;;;;;;;1.70;1.30;;;8.40;99.90;;;;;;5054353;28;20743;-50
2023/01/07 06:41:25;;;;;;;3.63;1.47;;;8.50;99.90;;;;;;5054144;28;20233;-48
2023/01/07 06:43:51;;;;;;;1.70;1.13;;;8.40;99.90;;;;;;5054566;28;20182;-49
2023/01/07 06:46:16;;;;;;;2.20;1.47;;;8.40;99.90;;;;;;5054412;28;20605;-50
2023/01/07 06:48:42;;;;;;;1.27;1.17;;;8.40;99.90;;;;;;5036269;28;20219;-50
2023/01/07 06:51:08;;;;;;;1.87;1.23;;;8.30;99.90;;;;;;5054003;28;20198;-50
2023/01/07 06:53:33;;;;;;;2.63;1.87;;;8.30;99.90;;;;;;5054013;28;20549;-51
2023/01/07 06:55:59;;;;;;;1.50;1.30;;;8.30;99.90;;;;;;5054030;28;20188;-50
2023/01/07 06:58:24;;;;;;;2.30;1.40;;;8.30;99.90;;;;;;5053900;28;20184;-51
2023/01/07 07:00:50;;;;;;;2.37;1.40;;;8.30;99.90;;;;;;5053735;28;20550;-50
2023/01/07 07:03:15;;;;;;;1.70;1.23;;;8.30;99.90;;;;;;5054039;28;20181;-51
2023/01/07 07:05:41;;;;;;;4.40;1.50;;;8.40;99.90;;;;;;5053766;28;20663;-51
2023/01/07 07:08:07;;;;;;;1.67;1.43;;;8.40;99.90;;;;;;5053977;28;20175;-52
2023/01/07 07:10:33;;;;;;;1.77;1.53;;;8.40;99.90;;;;;;5053826;28;20202;-52
2023/01/07 07:12:58;;;;;;;3.93;1.80;;;8.40;99.90;;;;;;5035854;28;20267;-52
2023/01/07 07:15:24;;;;;;;1.23;1.13;;;8.40;99.90;;;;;;5035883;28;20636;-50
2023/01/07 07:17:49;;;;;;;3.90;1.53;;;8.40;99.90;;;;;;5053725;28;20179;-51
2023/01/07 07:20:15;;;;;;;1.30;1.20;;;8.50;99.90;;;;;;5053422;28;20659;-50
2023/01/07 07:22:45;;;;;;;3.33;1.50;;;8.50;99.90;;;;;;5053519;28;20566;-51
2023/01/07 07:25:11;;;;;;;2.97;1.90;;;8.50;99.90;;;;;;5053751;28;20196;-50
2023/01/07 07:27:36;;;;;;;1.63;1.50;;;8.50;99.90;;;;;;5053721;28;20178;-51
2023/01/07 07:30:02;;;;;;;2.03;1.33;;;8.60;99.90;;;;;;5053447;28;20222;-50
2023/01/07 07:32:28;;;;;;;2.00;1.57;;;8.60;99.90;;;;;;5053364;28;20200;-52
2023/01/07 07:34:55;;;;;;;2.27;1.60;;;8.60;99.90;;;;;;5053872;28;20229;-51
2023/01/07 07:37:21;;;;;;;1.77;1.17;;;8.70;99.90;;;;;;5053459;28;20251;-51
2023/01/07 07:39:46;;;;;;;7.57;1.67;;;8.60;99.90;;;;;;5053508;28;20176;-50
2023/01/07 07:42:12;;;;;;;2.47;1.73;;;8.70;99.90;;;;;;5053525;28;20214;-51
2023/01/07 07:44:37;;;;;;;1.60;1.40;;;8.70;99.90;;;;;;5053325;28;20243;-50
2023/01/07 07:47:03;;;;;;;2.03;1.50;;;8.70;99.90;;;;;;5053218;28;20195;-52
2023/01/07 07:49:29;;;;;;;2.90;1.37;;;8.70;99.90;;;;;;5053122;28;20300;-53
2023/01/07 07:51:54;;;;;;;4.40;1.50;;;8.70;99.90;;;;;;5053289;28;20217;-51
2023/01/07 07:54:20;;;;;;;1.73;1.37;;;8.80;99.90;;;;;;5053430;28;20181;-50
2023/01/07 07:56:46;;;;;;;2.53;1.50;;;8.80;99.90;;;;;;5053060;28;20200;-50
2023/01/07 07:59:11;;;;;;;3.00;1.57;;;8.80;99.90;;;;;;5053729;28;20178;-51
2023/01/07 08:01:37;;;;;;;3.30;1.50;;;8.80;99.90;;;;;;5053001;28;20209;-51
2023/01/07 08:04:02;;;;;;;1.77;1.50;;;8.80;99.90;;;;;;5054401;28;20173;-52
2023/01/07 08:06:28;;;;;;;2.57;1.40;;;8.80;99.90;;;;;;5053267;28;20277;-52
2023/01/07 08:08:53;;;;;;;6.67;1.50;;;8.80;99.90;;;;;;5052827;28;20207;-52
2023/01/07 08:11:19;;;;;;;2.77;1.30;;;8.80;99.90;;;;;;5053203;28;20200;-52
2023/01/07 08:13:45;;;;;;;3.33;1.50;;;8.70;99.90;;;;;;5053239;28;20256;-52
2023/01/07 08:16:10;;;;;;;1.60;1.30;;;8.80;99.90;;;;;;5052928;28;20181;-50
2023/01/07 08:18:36;;;;;;;2.93;1.40;;;8.80;99.90;;;;;;5035113;28;20186;-50
2023/01/07 08:21:02;;;;;;;2.43;1.43;;;8.80;99.90;;;;;;5052954;28;20750;-52
2023/01/07 08:23:30;;;;;;;2.87;1.30;;;8.80;99.90;;;;;;5053464;28;20299;-52
2023/01/07 08:25:59;;;;;;;1.83;1.00;;;8.90;99.90;;;;;;5053257;28;20177;-50
2023/01/07 08:28:24;;;;;;;1.57;1.47;;;8.90;99.90;;;;;;5052832;28;20652;-49
2023/01/07 08:30:50;;;;;;;1.73;1.23;;;8.90;99.90;;;;;;5053127;28;20246;-52
2023/01/07 08:33:15;;;;;;;2.50;1.30;;;8.90;99.90;;;;;;5056674;28;20193;-53
2023/01/07 08:35:41;;;;;;;3.13;1.37;;;9.00;99.90;;;;;;5039244;28;20657;-50
2023/01/07 08:38:08;;;;;;;3.23;1.13;;;9.00;99.90;;;;;;5056710;28;20243;-50
2023/01/07 08:40:35;;;;;;;2.90;1.20;;;9.00;99.90;;;;;;5057162;28;20575;-51
2023/01/07 08:43:02;;;;;;;2.00;1.10;;;9.10;99.90;;;;;;5056565;28;20198;-52
2023/01/07 08:45:28;;;;;;;1.50;1.10;;;9.10;99.90;;;;;;5056566;28;20249;-51
2023/01/07 08:47:57;;;;;;;2.13;1.30;;;9.20;99.90;;;;;;5056502;28;20191;-50
2023/01/07 08:50:24;;;;;;;2.70;1.40;;;9.30;99.90;;;;;;5056603;28;20215;-51
2023/01/07 08:52:50;;;;;;;1.73;1.57;;;9.40;99.90;;;;;;5056397;28;20225;-51
2023/01/07 08:55:16;;;;;;;3.60;1.50;;;9.50;99.90;;;;;;5056591;28;20232;-50
2023/01/07 08:57:42;;;;;;;2.20;1.50;;;9.60;99.90;;;;;;5056597;28;20169;-49
2023/01/07 09:00:08;;;;;;;2.27;1.33;;;9.70;99.90;;;;;;5056310;28;20184;-51
2023/01/07 09:02:33;;;;;;;1.70;1.50;;;9.80;99.90;;;;;;5056134;28;20205;-51
2023/01/07 09:04:59;;;;;;;3.97;1.60;;;9.80;99.90;;;;;;5056259;28;20257;-50
2023/01/07 09:07:24;;;;;;;4.67;1.83;;;9.90;99.90;;;;;;5056024;28;20184;-50
2023/01/07 09:09:50;;;;;;;1.70;1.37;;;9.90;99.90;;;;;;5055997;28;20205;-50
2023/01/07 09:12:15;;;;;;;2.50;1.67;;;9.90;99.90;;;;;;5055986;28;20205;-51
2023/01/07 09:14:41;;;;;;;2.20;1.40;;;9.90;99.90;;;;;;5056117;28;20184;-51
2023/01/07 09:17:06;;;;;;;2.90;1.30;;;10.00;99.90;;;;;;5056367;28;20249;-48
2023/01/07 09:19:32;;;;;;;2.70;1.50;;;10.00;99.90;;;;;;5056475;28;20574;-53
2023/01/07 09:21:58;;;;;;;2.03;1.30;;;10.00;99.90;;;;;;5055799;28;20196;-51
2023/01/07 09:24:23;;;;;;;2.67;1.73;;;10.00;99.90;;;;;;5055774;28;20199;-53
2023/01/07 09:26:49;;;;;;;4.60;1.53;;;10.10;99.90;;;;;;5055998;28;20231;-50
2023/01/07 09:29:15;;;;;;;1.50;1.40;;;10.10;99.90;;;;;;5055996;28;20611;-50
2023/01/07 09:31:40;;;;;;;1.93;1.50;;;10.20;99.90;;;;;;5055612;28;20192;-51
2023/01/07 09:34:06;;;;;;;1.30;0.97;;;10.20;99.90;;;;;;5055673;28;20259;-50
2023/01/07 09:36:32;;;;;;;7.13;1.63;;;10.30;99.90;;;;;;5055742;28;20182;-53
2023/01/07 09:38:58;;;;;;;2.63;1.77;;;10.40;99.90;;;;;;5055612;28;20176;-50
2023/01/07 09:41:26;;;;;;;3.00;1.67;;;10.40;99.90;;;;;;5056007;28;20253;-50
2023/01/07 09:43:55;;;;;;;1.73;1.60;;;10.40;99.90;;;;;;5054498;28;20181;-51
2023/01/07 09:46:22;;;;;;;1.60;1.50;;;10.40;99.90;;;;;;5055310;28;20188;-51
2023/01/07 09:48:56;;;;;;;2.40;1.67;;;10.40;99.90;;;;;;5055517;28;20282;-52
2023/01/07 09:51:35;;;;;;;1.90;1.63;;;10.50;99.90;;;;;;5055515;28;20218;-52
2023/01/07 09:54:04;;;;;;;3.80;1.73;;;10.50;99.90;;;;;;5055531;28;20176;-52
2023/01/07 09:56:32;;;;;;;3.20;1.43;;;10.50;99.90;;;;;;5055555;28;20623;-53
2023/01/07 09:58:59;;;;;;;1.97;1.53;;;10.50;99.90;;;;;;5055398;28;20179;-52
2023/01/07 10:01:43;;;;;;;3.80;1.30;;;10.50;99.90;;;;;;5055496;28;20208;-50
2023/01/07 10:04:33;;;;;;;2.93;1.60;;;10.60;99.90;;;;;;5055131;28;20186;-51
2023/01/07 10:07:24;;;;;;;2.03;1.50;;;10.60;99.90;;;;;;5055319;28;20262;-51
2023/01/07 10:09:52;;;;;;;6.00;1.70;;;10.70;99.90;;;;;;5055444;28;20207;-50
2023/01/07 10:12:47;;;;;;;3.27;1.43;;;10.70;99.90;;;;;;5054934;28;20193;-50
2023/01/07 10:15:29;;;;;;;2.37;1.40;;;10.80;99.90;;;;;;5054904;28;20333;-52
2023/01/07 10:18:11;;;;;;;3.97;1.57;;;10.80;99.90;;;;;;5055092;28;20159;-51
2023/01/07 10:21:04;;;;;;;1.67;1.23;;;10.80;99.90;;;;;;5055040;28;20171;-50
2023/01/07 10:23:36;;;;;;;1.47;1.37;;;10.90;99.90;;;;;;5054978;28;20251;-52
2023/01/07 10:26:02;;;;;;;2.17;1.40;;;10.90;99.90;;;;;;5054975;28;20172;-53
2023/01/07 10:28:32;;;;;;;2.23;1.63;;;10.90;99.90;;;;;;5054574;28;20292;-50
2023/01/07 10:31:00;;;;;;;2.40;1.20;;;11.00;99.90;;;;;;5054822;28;20168;-51
2023/01/07 10:33:28;;;;;;;2.10;1.40;;;11.00;99.90;;;;;;5054543;28;20666;-50
2023/01/07 10:36:13;;;;;;;1.20;1.10;;;11.10;99.90;;;;;;5054421;28;20209;-52
2023/01/07 10:38:42;;;;;;;1.83;1.10;;;11.10;99.90;;;;;;5054417;28;20216;-50
2023/01/07 10:41:28;;;;;;;2.80;1.40;;;11.10;99.90;;;;;;5054528;28;20184;-51
2023/01/07 10:44:34;;;;;;;3.23;1.00;;;11.20;99.90;;;;;;5054635;28;20254;-51
2023/01/07 10:47:22;;;;;;;1.20;1.10;;;11.30;99.90;;;;;;5054577;28;20183;-51
2023/01/07 10:49:51;;;;;;;1.57;1.00;;;11.30;99.90;;;;;;5054147;28;20226;-52
2023/01/07 10:52:37;;;;;;;1.77;0.90;;;11.30;99.90;;;;;;5054128;28;20726;-52
2023/01/07 10:55:11;;;;;;;1.57;1.07;;;11.40;99.90;;;;;;5054665;28;20188;-51
2023/01/07 10:57:37;;;;;;;2.77;1.20;;;11.50;99.90;;;;;;5054099;28;20222;-50
2023/01/07 11:00:06;;;;;;;1.93;1.30;;;11.60;99.90;;;;;;5054131;28;20640;-50
2023/01/07 11:02:32;;;;;;;1.53;1.00;;;11.70;99.90;;;;;;5053919;28;20203;-50
2023/01/07 11:04:59;;;;;;;1.17;0.90;;;11.70;99.90;;;;;;5054207;28;20176;-50
2023/01/07 11:07:33;;;;;;;0.80;0.80;;;11.90;99.90;;;;;;5053902;28;20184;-51
2023/01/07 11:10:04;;;;;;;0.70;0.70;;;11.90;99.90;;;;;;5054082;28;20234;-49
2023/01/07 11:13:05;;;;;;;1.73;1.10;;;11.90;99.90;;;;;;5053709;28;20239;-49
2023/01/07 11:15:35;;;;;;;1.67;0.90;;;11.90;99.90;;;;;;5022538;28;20291;-50
2023/01/07 11:18:12;;;;;;;1.43;0.80;;;11.90;99.90;;;;;;5053955;28;20161;-50
2023/01/07 11:20:46;;;;;;;0.73;0.73;;;11.90;99.90;;;;;;5053879;28;20229;-49
2023/01/07 11:23:33;;;;;;;0.90;0.80;;;11.90;99.90;;;;;;5053508;28;20807;-50
2023/01/07 11:26:23;;;;;;;1.10;0.90;;;12.00;99.90;;;;;;5053840;28;20161;-50
2023/01/07 11:28:55;;;;;;;2.17;1.10;;;12.10;99.90;;;;;;5053487;28;20200;-50
2023/01/07 11:31:42;;;;;;;1.10;0.90;;;12.20;99.90;;;;;;5053629;28;20188;-50
2023/01/07 11:34:25;;;;;;;1.20;0.90;;;12.30;99.90;;;;;;5053679;28;20164;-50
2023/01/07 11:36:51;;;;;;;1.23;0.80;;;12.30;99.90;;;;;;5053571;28;20247;-50
2023/01/07 11:39:26;;;;;;;0.77;0.73;;;12.30;99.90;;;;;;5053539;28;20710;-50
2023/01/07 11:41:54;;;;;;;1.77;0.83;;;12.30;99.90;;;;;;5053514;28;20223;-50
2023/01/07 11:44:21;;;;;;;1.90;1.13;;;12.40;99.90;;;;;;5053766;28;20172;-49
2023/01/07 11:46:46;;;;;;;2.50;1.00;;;12.40;99.90;;;;;;5053454;28;20191;-48
2023/01/07 11:49:44;;;;;;;0.87;0.83;;;12.40;99.90;;;;;;5053614;28;20208;-50
2023/01/07 11:52:20;;;;;;;1.97;0.83;;;12.50;99.90;;;;;;5037882;28;20624;-49
2023/01/07 11:54:53;;;;;;;1.67;1.23;;;12.50;99.90;;;;;;5052980;28;20262;-50
2023/01/07 11:57:24;;;;;;;1.80;0.80;;;12.60;99.90;;;;;;5053427;28;20176;-50
2023/01/07 12:00:12;;;;;;;1.27;0.90;;;12.70;99.90;;;;;;5053353;28;20219;-51
2023/01/07 12:02:38;;;;;;;1.73;1.07;;;12.70;99.90;;;;;;5053243;28;20203;-51
2023/01/07 12:05:20;;;;;;;2.33;1.30;;;12.80;99.90;;;;;;5053350;28;20168;-50
2023/01/07 12:07:50;;;;;;;1.40;1.30;;;12.80;99.90;;;;;;5034477;28;20172;-49
2023/01/07 12:10:31;;;;;;;1.37;1.20;;;12.90;99.90;;;;;;5053338;28;20188;-49
2023/01/07 12:12:58;;;;;;;1.60;1.40;;;12.90;99.90;;;;;;5053441;28;20672;-50
2023/01/07 12:15:30;;;;;;;2.53;1.10;;;13.00;99.90;;;;;;5053574;28;20187;-50
2023/01/07 12:18:08;;;;;;;1.83;1.30;;;13.00;99.90;;;;;;5053216;28;20199;-51
2023/01/07 12:21:10;;;;;;;2.10;1.50;;;13.10;99.90;;;;;;5055311;28;20176;-51
2023/01/07 12:23:51;;;;;;;2.43;1.70;;;13.10;99.90;;;;;;5052907;28;20188;-49
2023/01/07 12:26:41;;;;;;;1.70;1.50;;;13.10;99.90;;;;;;5053530;28;20196;-50
2023/01/07 12:29:38;;;;;;;1.73;1.60;;;13.10;99.90;;;;;;5053230;28;20644;-50
2023/01/07 12:32:22;;;;;;;1.80;1.40;;;13.10;99.90;;;;;;5053222;28;20204;-51
2023/01/07 12:34:58;;;;;;;1.60;1.50;;;13.00;99.90;;;;;;5052880;28;20168;-52
2023/01/07 12:37:42;;;;;;;2.27;1.57;;;13.00;99.90;;;;;;5052917;28;20171;-51
2023/01/07 12:40:38;;;;;;;2.07;1.70;;;13.00;99.90;;;;;;5052879;28;20200;-50
2023/01/07 12:43:17;;;;;;;2.63;1.90;;;12.90;99.90;;;;;;5038480;28;20215;-49
2023/01/07 12:46:06;;;;;;;2.33;2.10;;;12.90;99.90;;;;;;5053058;28;20175;-51
2023/01/07 12:48:41;;;;;;;2.70;1.63;;;12.90;99.90;;;;;;5034803;28;20179;-51
2023/01/07 12:51:17;;;;;;;2.47;1.80;;;12.90;99.90;;;;;;5052991;28;20175;-50
2023/01/07 12:53:54;;;;;;;1.90;1.70;;;12.80;99.90;;;;;;5052901;28;20270;-51
2023/01/07 12:56:44;;;;;;;2.03;1.83;;;12.80;99.90;;;;;;5052913;28;20184;-49
2023/01/07 12:59:22;;;;;;;2.10;1.67;;;12.80;99.90;;;;;;5052541;28;20235;-50
2023/01/07 13:01:57;;;;;;;2.10;1.70;;;12.90;99.90;;;;;;5052983;28;20192;-51
2023/01/07 13:04:47;;;;;;;2.33;1.80;;;12.90;99.90;;;;;;5053056;28;20537;-51
2023/01/07 13:07:23;;;;;;;1.60;1.50;;;12.80;99.90;;;;;;5052588;28;20219;-49
2023/01/07 13:10:10;;;;;;;2.17;1.80;;;12.80;99.90;;;;;;5052637;28;20545;-50
2023/01/07 13:12:47;;;;;;;2.97;1.80;;;12.80;99.90;;;;;;5052537;28;20196;-50
2023/01/07 13:15:22;;;;;;;1.97;1.77;;;12.80;99.90;;;;;;5052738;28;20152;-51